sensor_id;sensor_type;location;lat;lon;timestamp;temperature;humidity
18694;DHT22;9477;51.414;10.362;2024-03-22T00:00:54;11.20;93.70
18694;DHT22;9477;51.414;10.362;2024-03-22T00:02:55;11.30;93.80
18694;DHT22;9477;51.414;10.362;2024-03-22T00:04:58;11.20;93.80
18694;DHT22;9477;51.414;10.362;2024-03-22T00:06:59;11.30;93.80
18694;DHT22;9477;51.414;10.362;2024-03-22T00:09:01;11.30;93.80
18694;DHT22;9477;51.414;10.362;2024-03-22T00:11:02;11.30;93.90
18694;DHT22;9477;51.414;10.362;2024-03-22T00:13:04;11.40;93.90
18694;DHT22;9477;51.414;10.362;2024-03-22T00:15:06;11.30;93.90
18694;DHT22;9477;51.414;10.362;2024-03-22T00:17:08;11.30;93.90
18694;DHT22;9477;51.414;10.362;2024-03-22T00:19:09;11.30;94.00
18694;DHT22;9477;51.414;10.362;2024-03-22T00:21:12;11.30;94.00
18694;DHT22;9477;51.414;10.362;2024-03-22T00:23:13;11.30;94.30
18694;DHT22;9477;51.414;10.362;2024-03-22T00:25:15;11.40;94.00
18694;DHT22;9477;51.414;10.362;2024-03-22T00:27:16;11.40;94.00
18694;DHT22;9477;51.414;10.362;2024-03-22T00:29:18;11.40;94.00
18694;DHT22;9477;51.414;10.362;2024-03-22T00:31:19;11.40;94.10
18694;DHT22;9477;51.414;10.362;2024-03-22T00:33:21;11.40;94.10
18694;DHT22;9477;51.414;10.362;2024-03-22T00:35:22;11.30;94.10
18694;DHT22;9477;51.414;10.362;2024-03-22T00:37:25;11.30;94.20
18694;DHT22;9477;51.414;10.362;2024-03-22T00:39:26;11.40;94.30
18694;DHT22;9477;51.414;10.362;2024-03-22T00:41:28;11.40;94.20
18694;DHT22;9477;51.414;10.362;2024-03-22T00:43:29;11.50;94.30
18694;DHT22;9477;51.414;10.362;2024-03-22T00:45:31;11.40;94.20
18694;DHT22;9477;51.414;10.362;2024-03-22T00:47:32;11.40;94.30
18694;DHT22;9477;51.414;10.362;2024-03-22T00:49:34;11.40;94.30
18694;DHT22;9477;51.414;10.362;2024-03-22T00:51:35;11.40;94.30
18694;DHT22;9477;51.414;10.362;2024-03-22T00:53:38;11.40;94.30
18694;DHT22;9477;51.414;10.362;2024-03-22T00:55:39;11.50;94.40
18694;DHT22;9477;51.414;10.362;2024-03-22T00:57:41;11.50;94.40
18694;DHT22;9477;51.414;10.362;2024-03-22T00:59:42;11.50;94.30
18694;DHT22;9477;51.414;10.362;2024-03-22T01:01:44;11.50;94.30
18694;DHT22;9477;51.414;10.362;2024-03-22T01:03:45;11.40;94.30
18694;DHT22;9477;51.414;10.362;2024-03-22T01:05:47;11.40;94.30
18694;DHT22;9477;51.414;10.362;2024-03-22T01:07:48;11.40;94.30
18694;DHT22;9477;51.414;10.362;2024-03-22T01:09:50;11.50;94.30
18694;DHT22;9477;51.414;10.362;2024-03-22T01:11:52;11.40;94.30
18694;DHT22;9477;51.414;10.362;2024-03-22T01:13:53;11.40;94.30
18694;DHT22;9477;51.414;10.362;2024-03-22T01:15:55;11.40;94.40
18694;DHT22;9477;51.414;10.362;2024-03-22T01:17:56;11.30;94.40
18694;DHT22;9477;51.414;10.362;2024-03-22T01:19:58;11.30;94.50
18694;DHT22;9477;51.414;10.362;2024-03-22T01:21:59;11.30;94.40
18694;DHT22;9477;51.414;10.362;2024-03-22T01:24:01;11.30;94.50
18694;DHT22;9477;51.414;10.362;2024-03-22T01:26:03;11.30;94.50
18694;DHT22;9477;51.414;10.362;2024-03-22T01:28:05;11.20;94.50
18694;DHT22;9477;51.414;10.362;2024-03-22T01:30:08;11.20;94.50
18694;DHT22;9477;51.414;10.362;2024-03-22T01:32:10;11.20;94.60
18694;DHT22;9477;51.414;10.362;2024-03-22T01:34:11;11.30;94.60
18694;DHT22;9477;51.414;10.362;2024-03-22T01:36:12;11.30;94.70
18694;DHT22;9477;51.414;10.362;2024-03-22T01:38:13;11.30;94.70
18694;DHT22;9477;51.414;10.362;2024-03-22T01:40:15;11.30;94.70
18694;DHT22;9477;51.414;10.362;2024-03-22T01:42:18;11.20;94.80
18694;DHT22;9477;51.414;10.362;2024-03-22T01:44:27;11.20;94.90
18694;DHT22;9477;51.414;10.362;2024-03-22T01:46:28;11.10;95.00
18694;DHT22;9477;51.414;10.362;2024-03-22T01:48:30;11.10;95.10
18694;DHT22;9477;51.414;10.362;2024-03-22T01:50:32;11.20;95.10
18694;DHT22;9477;51.414;10.362;2024-03-22T01:52:34;11.20;95.00
18694;DHT22;9477;51.414;10.362;2024-03-22T01:54:35;11.20;95.00
18694;DHT22;9477;51.414;10.362;2024-03-22T01:56:37;11.30;95.10
18694;DHT22;9477;51.414;10.362;2024-03-22T01:58:41;11.40;95.10
18694;DHT22;9477;51.414;10.362;2024-03-22T02:00:43;11.40;95.00
18694;DHT22;9477;51.414;10.362;2024-03-22T02:02:44;11.40;94.90
18694;DHT22;9477;51.414;10.362;2024-03-22T02:04:46;11.40;94.90
18694;DHT22;9477;51.414;10.362;2024-03-22T02:06:50;11.50;95.00
18694;DHT22;9477;51.414;10.362;2024-03-22T02:08:53;11.50;94.90
18694;DHT22;9477;51.414;10.362;2024-03-22T02:10:54;11.50;94.80
18694;DHT22;9477;51.414;10.362;2024-03-22T02:12:56;11.50;94.90
18694;DHT22;9477;51.414;10.362;2024-03-22T02:14:59;11.50;94.90
18694;DHT22;9477;51.414;10.362;2024-03-22T02:17:01;11.60;94.80
18694;DHT22;9477;51.414;10.362;2024-03-22T02:19:02;11.60;94.90
18694;DHT22;9477;51.414;10.362;2024-03-22T02:21:04;11.60;94.80
18694;DHT22;9477;51.414;10.362;2024-03-22T02:23:06;11.60;94.90
18694;DHT22;9477;51.414;10.362;2024-03-22T02:25:09;11.60;94.80
18694;DHT22;9477;51.414;10.362;2024-03-22T02:27:10;11.60;94.80
18694;DHT22;9477;51.414;10.362;2024-03-22T02:29:12;11.60;94.80
18694;DHT22;9477;51.414;10.362;2024-03-22T02:31:13;11.60;94.80
18694;DHT22;9477;51.414;10.362;2024-03-22T02:33:15;11.70;94.80
18694;DHT22;9477;51.414;10.362;2024-03-22T02:35:16;11.70;94.70
18694;DHT22;9477;51.414;10.362;2024-03-22T02:37:18;11.70;94.70
18694;DHT22;9477;51.414;10.362;2024-03-22T02:39:19;11.70;94.80
18694;DHT22;9477;51.414;10.362;2024-03-22T02:41:22;11.70;94.70
18694;DHT22;9477;51.414;10.362;2024-03-22T02:43:23;11.70;94.70
18694;DHT22;9477;51.414;10.362;2024-03-22T02:45:25;11.70;94.70
18694;DHT22;9477;51.414;10.362;2024-03-22T02:47:26;11.70;94.80
18694;DHT22;9477;51.414;10.362;2024-03-22T02:49:28;11.70;94.80
18694;DHT22;9477;51.414;10.362;2024-03-22T02:51:29;11.80;94.80
18694;DHT22;9477;51.414;10.362;2024-03-22T02:53:31;11.80;94.80
18694;DHT22;9477;51.414;10.362;2024-03-22T02:55:36;11.80;94.70
18694;DHT22;9477;51.414;10.362;2024-03-22T02:57:40;11.80;94.70
18694;DHT22;9477;51.414;10.362;2024-03-22T02:59:41;11.80;94.70
18694;DHT22;9477;51.414;10.362;2024-03-22T03:01:42;11.80;94.70
18694;DHT22;9477;51.414;10.362;2024-03-22T03:03:43;11.80;94.70
18694;DHT22;9477;51.414;10.362;2024-03-22T03:05:45;11.80;94.70
18694;DHT22;9477;51.414;10.362;2024-03-22T03:07:46;11.80;94.70
18694;DHT22;9477;51.414;10.362;2024-03-22T03:09:48;11.70;94.60
18694;DHT22;9477;51.414;10.362;2024-03-22T03:11:49;11.70;94.70
18694;DHT22;9477;51.414;10.362;2024-03-22T03:13:54;11.70;94.60
18694;DHT22;9477;51.414;10.362;2024-03-22T03:15:56;11.70;94.70
18694;DHT22;9477;51.414;10.362;2024-03-22T03:17:58;11.70;94.70
18694;DHT22;9477;51.414;10.362;2024-03-22T03:19:59;11.70;94.70
18694;DHT22;9477;51.414;10.362;2024-03-22T03:22:01;11.70;94.70
18694;DHT22;9477;51.414;10.362;2024-03-22T03:24:02;11.70;94.70
18694;DHT22;9477;51.414;10.362;2024-03-22T03:26:04;11.70;94.60
18694;DHT22;9477;51.414;10.362;2024-03-22T03:28:05;11.70;94.60
18694;DHT22;9477;51.414;10.362;2024-03-22T03:30:10;11.70;94.60
18694;DHT22;9477;51.414;10.362;2024-03-22T03:32:11;11.70;94.60
18694;DHT22;9477;51.414;10.362;2024-03-22T03:34:13;11.70;94.60
18694;DHT22;9477;51.414;10.362;2024-03-22T03:36:14;11.60;94.50
18694;DHT22;9477;51.414;10.362;2024-03-22T03:38:16;11.60;94.50
18694;DHT22;9477;51.414;10.362;2024-03-22T03:40:17;11.60;94.60
18694;DHT22;9477;51.414;10.362;2024-03-22T03:42:19;11.60;94.60
18694;DHT22;9477;51.414;10.362;2024-03-22T03:44:20;11.60;94.50
18694;DHT22;9477;51.414;10.362;2024-03-22T03:46:23;11.60;94.60
18694;DHT22;9477;51.414;10.362;2024-03-22T03:48:24;11.60;94.50
18694;DHT22;9477;51.414;10.362;2024-03-22T03:50:26;11.60;94.50
18694;DHT22;9477;51.414;10.362;2024-03-22T03:52:27;11.60;94.60
18694;DHT22;9477;51.414;10.362;2024-03-22T03:54:29;11.60;94.70
18694;DHT22;9477;51.414;10.362;2024-03-22T03:56:30;11.50;94.80
18694;DHT22;9477;51.414;10.362;2024-03-22T03:58:32;11.50;94.90
18694;DHT22;9477;51.414;10.362;2024-03-22T04:00:33;11.50;95.00
18694;DHT22;9477;51.414;10.362;2024-03-22T04:02:36;11.50;95.10
18694;DHT22;9477;51.414;10.362;2024-03-22T04:04:37;11.50;95.20
18694;DHT22;9477;51.414;10.362;2024-03-22T04:06:39;11.50;95.20
18694;DHT22;9477;51.414;10.362;2024-03-22T04:08:40;11.60;95.30
18694;DHT22;9477;51.414;10.362;2024-03-22T04:10:42;11.60;95.30
18694;DHT22;9477;51.414;10.362;2024-03-22T04:12:52;11.60;95.50
18694;DHT22;9477;51.414;10.362;2024-03-22T04:14:54;11.60;95.50
18694;DHT22;9477;51.414;10.362;2024-03-22T04:16:55;11.70;95.50
18694;DHT22;9477;51.414;10.362;2024-03-22T04:18:58;11.80;95.40
18694;DHT22;9477;51.414;10.362;2024-03-22T04:21:00;11.80;95.50
18694;DHT22;9477;51.414;10.362;2024-03-22T04:23:01;11.80;95.50
18694;DHT22;9477;51.414;10.362;2024-03-22T04:25:03;11.80;95.40
18694;DHT22;9477;51.414;10.362;2024-03-22T04:27:05;11.90;95.50
18694;DHT22;9477;51.414;10.362;2024-03-22T04:29:08;11.90;95.50
18694;DHT22;9477;51.414;10.362;2024-03-22T04:31:10;11.90;95.50
18694;DHT22;9477;51.414;10.362;2024-03-22T04:33:11;11.90;95.50
18694;DHT22;9477;51.414;10.362;2024-03-22T04:35:14;11.90;95.50
18694;DHT22;9477;51.414;10.362;2024-03-22T04:37:15;11.90;95.50
18694;DHT22;9477;51.414;10.362;2024-03-22T04:39:17;12.00;95.50
18694;DHT22;9477;51.414;10.362;2024-03-22T04:41:19;12.00;95.40
18694;DHT22;9477;51.414;10.362;2024-03-22T04:43:21;12.10;95.40
18694;DHT22;9477;51.414;10.362;2024-03-22T04:45:22;12.10;95.40
18694;DHT22;9477;51.414;10.362;2024-03-22T04:47:24;12.10;95.40
18694;DHT22;9477;51.414;10.362;2024-03-22T04:49:25;12.10;95.40
18694;DHT22;9477;51.414;10.362;2024-03-22T04:51:28;12.10;95.40
18694;DHT22;9477;51.414;10.362;2024-03-22T04:53:29;12.10;95.50
18694;DHT22;9477;51.414;10.362;2024-03-22T04:55:31;12.10;95.50
18694;DHT22;9477;51.414;10.362;2024-03-22T04:57:33;12.10;95.50
18694;DHT22;9477;51.414;10.362;2024-03-22T04:59:35;12.20;95.60
18694;DHT22;9477;51.414;10.362;2024-03-22T05:01:36;12.20;95.60
18694;DHT22;9477;51.414;10.362;2024-03-22T05:03:38;12.20;95.60
18694;DHT22;9477;51.414;10.362;2024-03-22T05:05:39;12.20;95.60
18694;DHT22;9477;51.414;10.362;2024-03-22T05:07:43;12.20;95.70
18694;DHT22;9477;51.414;10.362;2024-03-22T05:09:44;12.20;95.70
18694;DHT22;9477;51.414;10.362;2024-03-22T05:11:46;12.20;95.70
18694;DHT22;9477;51.414;10.362;2024-03-22T05:13:51;12.30;95.70
18694;DHT22;9477;51.414;10.362;2024-03-22T05:15:52;12.30;95.80
18694;DHT22;9477;51.414;10.362;2024-03-22T05:17:56;12.30;95.70
18694;DHT22;9477;51.414;10.362;2024-03-22T05:19:58;12.40;96.10
18694;DHT22;9477;51.414;10.362;2024-03-22T05:21:59;12.40;95.80
18694;DHT22;9477;51.414;10.362;2024-03-22T05:24:03;12.40;95.80
18694;DHT22;9477;51.414;10.362;2024-03-22T05:26:04;12.40;95.80
18694;DHT22;9477;51.414;10.362;2024-03-22T05:28:06;12.40;95.90
18694;DHT22;9477;51.414;10.362;2024-03-22T05:30:08;12.40;95.90
18694;DHT22;9477;51.414;10.362;2024-03-22T05:32:10;12.40;96.00
18694;DHT22;9477;51.414;10.362;2024-03-22T05:34:11;12.50;96.00
18694;DHT22;9477;51.414;10.362;2024-03-22T05:36:13;12.50;96.00
18694;DHT22;9477;51.414;10.362;2024-03-22T05:38:13;12.50;96.00
18694;DHT22;9477;51.414;10.362;2024-03-22T05:40:17;12.50;96.20
18694;DHT22;9477;51.414;10.362;2024-03-22T05:42:18;12.50;96.20
18694;DHT22;9477;51.414;10.362;2024-03-22T05:44:21;12.50;96.10
18694;DHT22;9477;51.414;10.362;2024-03-22T05:46:22;12.50;96.10
18694;DHT22;9477;51.414;10.362;2024-03-22T05:48:25;12.60;96.20
18694;DHT22;9477;51.414;10.362;2024-03-22T05:50:26;12.60;96.10
18694;DHT22;9477;51.414;10.362;2024-03-22T05:52:28;12.70;96.10
18694;DHT22;9477;51.414;10.362;2024-03-22T05:54:29;12.70;96.20
18694;DHT22;9477;51.414;10.362;2024-03-22T05:56:33;12.70;96.20
18694;DHT22;9477;51.414;10.362;2024-03-22T05:58:34;12.70;96.30
18694;DHT22;9477;51.414;10.362;2024-03-22T06:00:37;12.70;96.30
18694;DHT22;9477;51.414;10.362;2024-03-22T06:02:38;12.70;96.40
18694;DHT22;9477;51.414;10.362;2024-03-22T06:04:40;12.70;96.40
18694;DHT22;9477;51.414;10.362;2024-03-22T06:06:41;12.70;96.50
18694;DHT22;9477;51.414;10.362;2024-03-22T06:08:43;12.70;96.50
18694;DHT22;9477;51.414;10.362;2024-03-22T06:10:45;12.80;96.60
18694;DHT22;9477;51.414;10.362;2024-03-22T06:12:49;12.80;96.50
18694;DHT22;9477;51.414;10.362;2024-03-22T06:14:50;12.80;96.60
18694;DHT22;9477;51.414;10.362;2024-03-22T06:16:52;12.80;96.60
18694;DHT22;9477;51.414;10.362;2024-03-22T06:18:53;12.90;96.70
18694;DHT22;9477;51.414;10.362;2024-03-22T06:20:54;12.90;96.70
18694;DHT22;9477;51.414;10.362;2024-03-22T06:22:56;12.90;96.70
18694;DHT22;9477;51.414;10.362;2024-03-22T06:24:58;12.90;96.70
18694;DHT22;9477;51.414;10.362;2024-03-22T06:26:59;13.00;96.70
18694;DHT22;9477;51.414;10.362;2024-03-22T06:29:03;13.00;96.60
18694;DHT22;9477;51.414;10.362;2024-03-22T06:31:04;13.00;96.60
18694;DHT22;9477;51.414;10.362;2024-03-22T06:33:06;13.10;96.70
18694;DHT22;9477;51.414;10.362;2024-03-22T06:35:07;13.10;96.70
18694;DHT22;9477;51.414;10.362;2024-03-22T06:37:09;13.10;96.70
18694;DHT22;9477;51.414;10.362;2024-03-22T06:39:10;13.10;96.70
18694;DHT22;9477;51.414;10.362;2024-03-22T06:41:12;13.20;96.80
18694;DHT22;9477;51.414;10.362;2024-03-22T06:43:13;13.20;96.80
18694;DHT22;9477;51.414;10.362;2024-03-22T06:45:16;13.20;96.80
18694;DHT22;9477;51.414;10.362;2024-03-22T06:47:17;13.20;97.00
18694;DHT22;9477;51.414;10.362;2024-03-22T06:49:21;13.30;96.80
18694;DHT22;9477;51.414;10.362;2024-03-22T06:51:22;13.30;96.70
18694;DHT22;9477;51.414;10.362;2024-03-22T06:53:24;13.30;96.80
18694;DHT22;9477;51.414;10.362;2024-03-22T06:55:25;13.40;96.80
18694;DHT22;9477;51.414;10.362;2024-03-22T06:57:27;13.40;96.80
18694;DHT22;9477;51.414;10.362;2024-03-22T06:59:28;13.40;96.70
18694;DHT22;9477;51.414;10.362;2024-03-22T07:01:32;13.40;96.80
18694;DHT22;9477;51.414;10.362;2024-03-22T07:03:33;13.50;96.80
18694;DHT22;9477;51.414;10.362;2024-03-22T07:05:35;13.40;96.70
18694;DHT22;9477;51.414;10.362;2024-03-22T07:07:36;13.50;96.80
18694;DHT22;9477;51.414;10.362;2024-03-22T07:09:38;13.50;96.80
18694;DHT22;9477;51.414;10.362;2024-03-22T07:11:40;13.50;96.90
18694;DHT22;9477;51.414;10.362;2024-03-22T07:13:43;13.50;96.80
18694;DHT22;9477;51.414;10.362;2024-03-22T07:15:44;13.60;96.80
18694;DHT22;9477;51.414;10.362;2024-03-22T07:17:47;13.60;96.80
18694;DHT22;9477;51.414;10.362;2024-03-22T07:19:48;13.70;96.80
18694;DHT22;9477;51.414;10.362;2024-03-22T07:21:50;13.70;96.80
18694;DHT22;9477;51.414;10.362;2024-03-22T07:23:51;13.70;96.80
18694;DHT22;9477;51.414;10.362;2024-03-22T07:25:53;13.70;96.80
18694;DHT22;9477;51.414;10.362;2024-03-22T07:27:54;13.80;96.90
18694;DHT22;9477;51.414;10.362;2024-03-22T07:29:55;13.80;96.80
18694;DHT22;9477;51.414;10.362;2024-03-22T07:31:57;13.90;96.90
18694;DHT22;9477;51.414;10.362;2024-03-22T07:33:59;13.90;96.90
18694;DHT22;9477;51.414;10.362;2024-03-22T07:36:02;13.90;96.90
18694;DHT22;9477;51.414;10.362;2024-03-22T07:38:03;14.00;97.00
18694;DHT22;9477;51.414;10.362;2024-03-22T07:40:06;14.00;97.00
18694;DHT22;9477;51.414;10.362;2024-03-22T07:42:08;14.10;97.10
18694;DHT22;9477;51.414;10.362;2024-03-22T07:44:08;14.10;96.90
18694;DHT22;9477;51.414;10.362;2024-03-22T07:46:11;14.10;96.90
18694;DHT22;9477;51.414;10.362;2024-03-22T07:48:15;14.10;96.90
18694;DHT22;9477;51.414;10.362;2024-03-22T07:50:18;14.10;97.00
18694;DHT22;9477;51.414;10.362;2024-03-22T07:52:19;14.20;97.00
18694;DHT22;9477;51.414;10.362;2024-03-22T07:54:21;14.20;97.00
18694;DHT22;9477;51.414;10.362;2024-03-22T07:56:22;14.20;97.00
18694;DHT22;9477;51.414;10.362;2024-03-22T07:58:24;14.20;96.90
18694;DHT22;9477;51.414;10.362;2024-03-22T08:00:25;14.30;96.90
18694;DHT22;9477;51.414;10.362;2024-03-22T08:02:26;14.30;96.90
18694;DHT22;9477;51.414;10.362;2024-03-22T08:04:27;14.30;96.90
18694;DHT22;9477;51.414;10.362;2024-03-22T08:06:30;14.40;97.00
18694;DHT22;9477;51.414;10.362;2024-03-22T08:08:32;14.40;97.00
18694;DHT22;9477;51.414;10.362;2024-03-22T08:10:33;14.40;97.00
18694;DHT22;9477;51.414;10.362;2024-03-22T08:12:35;14.40;97.00
18694;DHT22;9477;51.414;10.362;2024-03-22T08:14:36;14.50;97.10
18694;DHT22;9477;51.414;10.362;2024-03-22T08:16:38;14.50;97.00
18694;DHT22;9477;51.414;10.362;2024-03-22T08:18:39;14.60;97.10
18694;DHT22;9477;51.414;10.362;2024-03-22T08:20:41;14.60;97.00
18694;DHT22;9477;51.414;10.362;2024-03-22T08:22:44;14.60;97.10
18694;DHT22;9477;51.414;10.362;2024-03-22T08:24:46;14.70;97.10
18694;DHT22;9477;51.414;10.362;2024-03-22T08:26:47;14.70;96.80
18694;DHT22;9477;51.414;10.362;2024-03-22T08:28:49;14.70;97.00
18694;DHT22;9477;51.414;10.362;2024-03-22T08:30:50;14.80;97.00
18694;DHT22;9477;51.414;10.362;2024-03-22T08:32:52;14.90;97.20
18694;DHT22;9477;51.414;10.362;2024-03-22T08:34:53;14.90;97.20
18694;DHT22;9477;51.414;10.362;2024-03-22T08:36:54;15.00;97.10
18694;DHT22;9477;51.414;10.362;2024-03-22T08:38:58;15.10;97.10
18694;DHT22;9477;51.414;10.362;2024-03-22T08:40:59;15.20;97.00
18694;DHT22;9477;51.414;10.362;2024-03-22T08:43:01;15.20;96.80
18694;DHT22;9477;51.414;10.362;2024-03-22T08:45:02;15.20;97.00
18694;DHT22;9477;51.414;10.362;2024-03-22T08:47:04;15.30;97.00
18694;DHT22;9477;51.414;10.362;2024-03-22T08:49:06;15.30;97.00
18694;DHT22;9477;51.414;10.362;2024-03-22T08:51:07;15.40;97.00
18694;DHT22;9477;51.414;10.362;2024-03-22T08:53:09;15.50;97.00
18694;DHT22;9477;51.414;10.362;2024-03-22T08:55:11;15.50;97.00
18694;DHT22;9477;51.414;10.362;2024-03-22T08:57:13;15.50;97.10
18694;DHT22;9477;51.414;10.362;2024-03-22T08:59:14;15.60;97.00
18694;DHT22;9477;51.414;10.362;2024-03-22T09:01:16;15.70;96.90
18694;DHT22;9477;51.414;10.362;2024-03-22T09:03:17;15.70;96.90
18694;DHT22;9477;51.414;10.362;2024-03-22T09:05:19;15.70;96.90
18694;DHT22;9477;51.414;10.362;2024-03-22T09:07:20;15.80;96.80
18694;DHT22;9477;51.414;10.362;2024-03-22T09:09:22;15.80;96.90
18694;DHT22;9477;51.414;10.362;2024-03-22T09:11:24;15.90;96.90
18694;DHT22;9477;51.414;10.362;2024-03-22T09:13:26;15.90;96.90
18694;DHT22;9477;51.414;10.362;2024-03-22T09:15:27;16.00;97.30
18694;DHT22;9477;51.414;10.362;2024-03-22T09:17:29;16.00;96.90
18694;DHT22;9477;51.414;10.362;2024-03-22T09:19:30;16.10;97.00
18694;DHT22;9477;51.414;10.362;2024-03-22T09:21:32;16.10;96.90
18694;DHT22;9477;51.414;10.362;2024-03-22T09:23:33;16.20;96.80
18694;DHT22;9477;51.414;10.362;2024-03-22T09:25:35;16.20;96.80
18694;DHT22;9477;51.414;10.362;2024-03-22T09:27:37;16.30;96.90
18694;DHT22;9477;51.414;10.362;2024-03-22T09:29:39;16.30;96.90
18694;DHT22;9477;51.414;10.362;2024-03-22T09:31:40;16.40;96.90
18694;DHT22;9477;51.414;10.362;2024-03-22T09:33:42;16.40;97.10
18694;DHT22;9477;51.414;10.362;2024-03-22T09:35:43;16.50;96.90
18694;DHT22;9477;51.414;10.362;2024-03-22T09:37:45;16.60;96.80
18694;DHT22;9477;51.414;10.362;2024-03-22T09:39:46;16.60;96.80
18694;DHT22;9477;51.414;10.362;2024-03-22T09:41:50;16.60;96.80
18694;DHT22;9477;51.414;10.362;2024-03-22T09:43:54;16.70;96.80
18694;DHT22;9477;51.414;10.362;2024-03-22T09:45:59;16.70;96.60
18694;DHT22;9477;51.414;10.362;2024-03-22T09:48:02;16.70;96.80
18694;DHT22;9477;51.414;10.362;2024-03-22T09:50:06;16.70;96.60
18694;DHT22;9477;51.414;10.362;2024-03-22T09:52:09;16.80;96.70
18694;DHT22;9477;51.414;10.362;2024-03-22T09:54:12;16.80;96.80
18694;DHT22;9477;51.414;10.362;2024-03-22T09:56:14;16.90;96.80
18694;DHT22;9477;51.414;10.362;2024-03-22T09:58:16;16.90;96.80
18694;DHT22;9477;51.414;10.362;2024-03-22T10:00:20;16.90;96.70
18694;DHT22;9477;51.414;10.362;2024-03-22T10:02:23;17.00;96.90
18694;DHT22;9477;51.414;10.362;2024-03-22T10:04:27;17.10;96.90
18694;DHT22;9477;51.414;10.362;2024-03-22T10:06:29;17.20;96.70
18694;DHT22;9477;51.414;10.362;2024-03-22T10:08:32;17.20;96.40
18694;DHT22;9477;51.414;10.362;2024-03-22T10:10:34;17.20;96.50
18694;DHT22;9477;51.414;10.362;2024-03-22T10:12:36;17.20;96.60
18694;DHT22;9477;51.414;10.362;2024-03-22T10:14:36;17.20;96.60
18694;DHT22;9477;51.414;10.362;2024-03-22T10:16:42;17.20;96.70
18694;DHT22;9477;51.414;10.362;2024-03-22T10:18:43;17.40;96.70
18694;DHT22;9477;51.414;10.362;2024-03-22T10:20:45;17.40;96.60
18694;DHT22;9477;51.414;10.362;2024-03-22T10:22:49;17.50;96.60
18694;DHT22;9477;51.414;10.362;2024-03-22T10:24:55;17.40;96.20
18694;DHT22;9477;51.414;10.362;2024-03-22T10:27:01;17.40;96.40
18694;DHT22;9477;51.414;10.362;2024-03-22T10:29:05;17.50;96.50
18694;DHT22;9477;51.414;10.362;2024-03-22T10:31:06;17.50;96.50
18694;DHT22;9477;51.414;10.362;2024-03-22T10:33:10;17.60;96.60
18694;DHT22;9477;51.414;10.362;2024-03-22T10:35:12;17.60;96.50
18694;DHT22;9477;51.414;10.362;2024-03-22T10:37:15;17.60;96.50
18694;DHT22;9477;51.414;10.362;2024-03-22T10:39:17;17.70;96.50
18694;DHT22;9477;51.414;10.362;2024-03-22T10:41:19;17.70;96.20
18694;DHT22;9477;51.414;10.362;2024-03-22T10:43:21;17.70;96.30
18694;DHT22;9477;51.414;10.362;2024-03-22T10:45:22;17.70;96.30
18694;DHT22;9477;51.414;10.362;2024-03-22T10:47:30;17.80;96.10
18694;DHT22;9477;51.414;10.362;2024-03-22T10:49:37;17.80;95.90
18694;DHT22;9477;51.414;10.362;2024-03-22T10:51:40;17.70;96.00
18694;DHT22;9477;51.414;10.362;2024-03-22T10:53:41;17.70;96.30
18694;DHT22;9477;51.414;10.362;2024-03-22T10:55:45;17.80;96.40
18694;DHT22;9477;51.414;10.362;2024-03-22T10:57:47;17.80;96.30
18694;DHT22;9477;51.414;10.362;2024-03-22T10:59:49;17.90;96.10
18694;DHT22;9477;51.414;10.362;2024-03-22T11:02:03;18.00;96.20
18694;DHT22;9477;51.414;10.362;2024-03-22T11:04:05;18.00;95.70
18694;DHT22;9477;51.414;10.362;2024-03-22T11:06:08;18.00;95.70
18694;DHT22;9477;51.414;10.362;2024-03-22T11:08:10;18.00;95.50
18694;DHT22;9477;51.414;10.362;2024-03-22T11:10:11;18.00;95.50
18694;DHT22;9477;51.414;10.362;2024-03-22T11:12:13;18.00;95.60
18694;DHT22;9477;51.414;10.362;2024-03-22T11:14:15;18.10;95.70
18694;DHT22;9477;51.414;10.362;2024-03-22T11:16:16;18.00;95.20
18694;DHT22;9477;51.414;10.362;2024-03-22T11:18:18;18.10;95.60
18694;DHT22;9477;51.414;10.362;2024-03-22T11:20:20;18.10;95.40
18694;DHT22;9477;51.414;10.362;2024-03-22T11:22:22;18.20;95.10
18694;DHT22;9477;51.414;10.362;2024-03-22T11:24:24;18.20;94.90
18694;DHT22;9477;51.414;10.362;2024-03-22T11:26:25;18.00;94.80
18694;DHT22;9477;51.414;10.362;2024-03-22T11:28:27;18.00;95.00
18694;DHT22;9477;51.414;10.362;2024-03-22T11:30:28;18.10;95.20
18694;DHT22;9477;51.414;10.362;2024-03-22T11:32:30;18.20;95.10
18694;DHT22;9477;51.414;10.362;2024-03-22T11:34:31;18.20;95.20
18694;DHT22;9477;51.414;10.362;2024-03-22T11:36:35;18.30;95.30
18694;DHT22;9477;51.414;10.362;2024-03-22T11:38:37;18.40;95.30
18694;DHT22;9477;51.414;10.362;2024-03-22T11:40:39;18.50;95.40
18694;DHT22;9477;51.414;10.362;2024-03-22T11:42:42;18.60;95.40
18694;DHT22;9477;51.414;10.362;2024-03-22T11:44:45;18.60;95.00
18694;DHT22;9477;51.414;10.362;2024-03-22T11:46:46;18.70;95.30
18694;DHT22;9477;51.414;10.362;2024-03-22T11:48:51;18.70;95.10
18694;DHT22;9477;51.414;10.362;2024-03-22T11:50:52;18.80;95.10
18694;DHT22;9477;51.414;10.362;2024-03-22T11:52:56;18.80;95.00
18694;DHT22;9477;51.414;10.362;2024-03-22T11:54:58;18.90;94.90
18694;DHT22;9477;51.414;10.362;2024-03-22T11:57:02;18.80;94.70
18694;DHT22;9477;51.414;10.362;2024-03-22T11:59:03;18.80;94.60
18694;DHT22;9477;51.414;10.362;2024-03-22T12:01:05;18.80;94.50
18694;DHT22;9477;51.414;10.362;2024-03-22T12:03:06;18.80;94.90
18694;DHT22;9477;51.414;10.362;2024-03-22T12:05:09;18.90;94.90
18694;DHT22;9477;51.414;10.362;2024-03-22T12:07:10;18.90;94.70
18694;DHT22;9477;51.414;10.362;2024-03-22T12:09:13;18.90;94.70
18694;DHT22;9477;51.414;10.362;2024-03-22T12:11:15;18.90;94.70
18694;DHT22;9477;51.414;10.362;2024-03-22T12:13:17;19.00;94.40
18694;DHT22;9477;51.414;10.362;2024-03-22T12:15:18;19.00;94.70
18694;DHT22;9477;51.414;10.362;2024-03-22T12:17:20;19.10;94.80
18694;DHT22;9477;51.414;10.362;2024-03-22T12:19:21;19.10;94.50
18694;DHT22;9477;51.414;10.362;2024-03-22T12:21:23;19.10;94.60
18694;DHT22;9477;51.414;10.362;2024-03-22T12:23:24;19.10;94.60
18694;DHT22;9477;51.414;10.362;2024-03-22T12:25:26;19.20;94.60
18694;DHT22;9477;51.414;10.362;2024-03-22T12:27:29;19.20;94.50
18694;DHT22;9477;51.414;10.362;2024-03-22T12:29:32;19.20;94.30
18694;DHT22;9477;51.414;10.362;2024-03-22T12:31:33;19.20;94.50
18694;DHT22;9477;51.414;10.362;2024-03-22T12:33:35;19.30;94.40
18694;DHT22;9477;51.414;10.362;2024-03-22T12:35:36;19.20;94.40
18694;DHT22;9477;51.414;10.362;2024-03-22T12:37:37;19.30;94.30
18694;DHT22;9477;51.414;10.362;2024-03-22T12:39:39;19.30;94.30
18694;DHT22;9477;51.414;10.362;2024-03-22T12:41:41;19.30;94.50
18694;DHT22;9477;51.414;10.362;2024-03-22T12:43:44;19.30;94.30
18694;DHT22;9477;51.414;10.362;2024-03-22T12:45:46;19.30;94.10
18694;DHT22;9477;51.414;10.362;2024-03-22T12:47:47;19.30;94.00
18694;DHT22;9477;51.414;10.362;2024-03-22T12:49:48;19.30;94.10